Airfield :
LOGIN :

Register | Disclaimer

   EN    FR    IT 

 










Legend :    VFR   Marginal VFR   IFR   Intensive IFR   Very Intensive IFR
Visi :
Ceiling :
>= 8 km
>= 3000ft
5 to 8 km
1000 to 3000 ft
1500m to 5 km
500 to 1000 ft
800 to 1500m
200 to 500 ft
< 800m
< 200 ft
Symbols :   Thunderstorms  Fog  Heavy snow  Heavy precipitations  Wind > 20 kt
SIGMETs :     Misc.  Thunderstorms  Icing  Turbulence  Mountain Waves  Volcanic Ashes







- Airport Elevation : 1273 ft
- IATA code : LJU


LJLJ - Ljubljana

CURRENT METAR :
  • 251400Z 19009KT 150V220 9999 FEW040 BKN055 15/08 Q1012 NOSIG

EXPIRED METARs :
  • 251330Z 18006KT 150V230 9999 VCSH SCT045 BKN065 16/09 Q1012 NOSIG
  • 251300Z 18008KT 150V220 9999 SCT045 BKN065 15/08 Q1012 NOSIG
  • 251230Z 18007KT 9999 SCT045 BKN100 15/08 Q1012 NOSIG
  • 251200Z 18005KT 150V260 9999 FEW035 BKN065 16/08 Q1012 NOSIG
  • 251130Z 16006KT 110V210 9999 FEW025 SCT040 BKN100 16/09 Q1013 NOSIG

TAF TAF LJLJ
Valid from the 25 at 12:00 until the 26 at 12:00 UTC


251100Z 2512/2612 25005KT 9999 SCT030 BKN055
TEMPO 2512/2609 -RA BKN030 BKN050
TEMPO 2512/2518 25010KT
BECMG 2518/2521 29004KT
BECMG 2609/2612 7000 RA OVC030
No reported NOTAMs for that airfield.



MET'MAP, your aeronautical weather chart ! - Copyright ORBIFLY December 2007 - Disclaimer

ORBIFLY MET'MAP TEAM :

Programming & Development : Alexandra Zaïnal
Concept & Development : Baudouin d'Aumeries
Co-Development & Prog : Marc-Olivier Méhu
Technical & hardware support : Manuel Goepfert

Contact : metmap@orbifly.com




SOURCES & CREDITS :

   NOAA